sensor_id;sensor_type;location;lat;lon;timestamp;P1;durP1;ratioP1;P2;durP2;ratioP2
26014;SDS011;13793;55.388;37.844;2023-02-01T00:01:56;44.97;;;22.67;;
26014;SDS011;13793;55.388;37.844;2023-02-01T00:04:28;43.63;;;22.43;;
26014;SDS011;13793;55.388;37.844;2023-02-01T00:06:59;49.80;;;23.47;;
26014;SDS011;13793;55.388;37.844;2023-02-01T00:09:29;47.40;;;22.73;;
26014;SDS011;13793;55.388;37.844;2023-02-01T00:12:03;47.77;;;22.67;;
26014;SDS011;13793;55.388;37.844;2023-02-01T00:14:33;49.10;;;23.13;;
26014;SDS011;13793;55.388;37.844;2023-02-01T00:17:05;47.07;;;22.73;;
26014;SDS011;13793;55.388;37.844;2023-02-01T00:19:36;50.30;;;22.97;;
26014;SDS011;13793;55.388;37.844;2023-02-01T00:22:06;51.73;;;24.30;;
26014;SDS011;13793;55.388;37.844;2023-02-01T00:24:37;52.00;;;24.73;;
26014;SDS011;13793;55.388;37.844;2023-02-01T00:27:08;48.97;;;23.43;;
26014;SDS011;13793;55.388;37.844;2023-02-01T00:29:38;51.67;;;23.63;;
26014;SDS011;13793;55.388;37.844;2023-02-01T00:32:09;51.20;;;23.40;;
26014;SDS011;13793;55.388;37.844;2023-02-01T00:34:39;45.67;;;22.37;;
26014;SDS011;13793;55.388;37.844;2023-02-01T00:37:10;44.63;;;22.40;;
26014;SDS011;13793;55.388;37.844;2023-02-01T00:39:41;48.10;;;23.17;;
26014;SDS011;13793;55.388;37.844;2023-02-01T00:42:11;47.67;;;22.23;;
26014;SDS011;13793;55.388;37.844;2023-02-01T00:44:42;47.97;;;22.20;;
26014;SDS011;13793;55.388;37.844;2023-02-01T00:47:12;49.63;;;22.90;;
26014;SDS011;13793;55.388;37.844;2023-02-01T00:49:43;40.63;;;21.47;;
26014;SDS011;13793;55.388;37.844;2023-02-01T00:52:13;47.30;;;22.93;;
26014;SDS011;13793;55.388;37.844;2023-02-01T00:54:44;48.87;;;22.70;;
26014;SDS011;13793;55.388;37.844;2023-02-01T00:57:14;45.70;;;22.43;;
26014;SDS011;13793;55.388;37.844;2023-02-01T00:59:47;50.33;;;22.97;;
26014;SDS011;13793;55.388;37.844;2023-02-01T01:02:18;45.97;;;23.30;;
26014;SDS011;13793;55.388;37.844;2023-02-01T01:04:48;48.60;;;22.27;;
26014;SDS011;13793;55.388;37.844;2023-02-01T01:07:19;45.93;;;22.43;;
26014;SDS011;13793;55.388;37.844;2023-02-01T01:09:50;49.90;;;22.53;;
26014;SDS011;13793;55.388;37.844;2023-02-01T01:12:20;47.23;;;22.67;;
26014;SDS011;13793;55.388;37.844;2023-02-01T01:14:51;47.03;;;23.33;;
26014;SDS011;13793;55.388;37.844;2023-02-01T01:17:21;50.53;;;23.53;;
26014;SDS011;13793;55.388;37.844;2023-02-01T01:19:52;48.40;;;22.60;;
26014;SDS011;13793;55.388;37.844;2023-02-01T01:22:22;45.30;;;23.10;;
26014;SDS011;13793;55.388;37.844;2023-02-01T01:24:54;52.27;;;23.37;;
26014;SDS011;13793;55.388;37.844;2023-02-01T01:27:25;50.30;;;23.30;;
26014;SDS011;13793;55.388;37.844;2023-02-01T01:29:55;47.17;;;21.97;;
26014;SDS011;13793;55.388;37.844;2023-02-01T01:32:26;50.17;;;23.43;;
26014;SDS011;13793;55.388;37.844;2023-02-01T01:34:56;45.73;;;23.70;;
26014;SDS011;13793;55.388;37.844;2023-02-01T01:37:29;45.20;;;22.30;;
26014;SDS011;13793;55.388;37.844;2023-02-01T01:39:59;51.37;;;23.50;;
26014;SDS011;13793;55.388;37.844;2023-02-01T01:42:30;52.83;;;23.80;;
26014;SDS011;13793;55.388;37.844;2023-02-01T01:45:03;50.00;;;24.07;;
26014;SDS011;13793;55.388;37.844;2023-02-01T01:47:37;49.47;;;23.70;;
26014;SDS011;13793;55.388;37.844;2023-02-01T01:50:10;48.33;;;23.03;;
26014;SDS011;13793;55.388;37.844;2023-02-01T01:52:45;47.03;;;22.60;;
26014;SDS011;13793;55.388;37.844;2023-02-01T01:55:18;49.93;;;23.33;;
26014;SDS011;13793;55.388;37.844;2023-02-01T01:57:55;47.53;;;23.33;;
26014;SDS011;13793;55.388;37.844;2023-02-01T02:00:25;50.43;;;23.67;;
26014;SDS011;13793;55.388;37.844;2023-02-01T02:03:00;50.83;;;23.93;;
26014;SDS011;13793;55.388;37.844;2023-02-01T02:05:32;46.57;;;21.47;;
26014;SDS011;13793;55.388;37.844;2023-02-01T02:08:02;48.57;;;23.03;;
26014;SDS011;13793;55.388;37.844;2023-02-01T02:10:33;47.67;;;23.63;;
26014;SDS011;13793;55.388;37.844;2023-02-01T02:13:22;44.83;;;21.77;;
26014;SDS011;13793;55.388;37.844;2023-02-01T02:16:04;48.47;;;22.37;;
26014;SDS011;13793;55.388;37.844;2023-02-01T02:18:44;48.17;;;23.00;;
26014;SDS011;13793;55.388;37.844;2023-02-01T02:21:23;51.80;;;22.60;;
26014;SDS011;13793;55.388;37.844;2023-02-01T02:29:43;54.07;;;24.30;;
26014;SDS011;13793;55.388;37.844;2023-02-01T02:35:56;52.73;;;23.83;;
26014;SDS011;13793;55.388;37.844;2023-02-01T02:38:12;48.40;;;23.60;;
26014;SDS011;13793;55.388;37.844;2023-02-01T02:40:56;52.93;;;22.83;;
26014;SDS011;13793;55.388;37.844;2023-02-01T02:43:30;49.40;;;23.80;;
26014;SDS011;13793;55.388;37.844;2023-02-01T02:46:20;48.20;;;22.90;;
26014;SDS011;13793;55.388;37.844;2023-02-01T02:49:15;49.93;;;23.63;;
26014;SDS011;13793;55.388;37.844;2023-02-01T02:51:44;51.83;;;24.00;;
26014;SDS011;13793;55.388;37.844;2023-02-01T02:54:33;50.00;;;22.53;;
26014;SDS011;13793;55.388;37.844;2023-02-01T02:57:28;40.83;;;17.23;;
26014;SDS011;13793;55.388;37.844;2023-02-01T03:00:24;46.60;;;22.17;;
26014;SDS011;13793;55.388;37.844;2023-02-01T03:03:14;53.57;;;24.00;;
26014;SDS011;13793;55.388;37.844;2023-02-01T03:06:10;53.10;;;23.93;;
26014;SDS011;13793;55.388;37.844;2023-02-01T03:08:46;52.70;;;24.13;;
26014;SDS011;13793;55.388;37.844;2023-02-01T03:11:16;52.10;;;24.10;;
26014;SDS011;13793;55.388;37.844;2023-02-01T03:13:51;52.07;;;23.63;;
26014;SDS011;13793;55.388;37.844;2023-02-01T03:19:09;51.87;;;25.13;;
26014;SDS011;13793;55.388;37.844;2023-02-01T03:21:55;53.80;;;24.90;;
26014;SDS011;13793;55.388;37.844;2023-02-01T03:24:31;55.47;;;24.83;;
26014;SDS011;13793;55.388;37.844;2023-02-01T03:27:09;51.07;;;23.10;;
26014;SDS011;13793;55.388;37.844;2023-02-01T03:29:41;54.27;;;25.80;;
26014;SDS011;13793;55.388;37.844;2023-02-01T03:32:10;55.50;;;25.80;;
26014;SDS011;13793;55.388;37.844;2023-02-01T03:34:41;55.83;;;23.80;;
26014;SDS011;13793;55.388;37.844;2023-02-01T03:37:13;54.87;;;25.00;;
26014;SDS011;13793;55.388;37.844;2023-02-01T03:39:53;57.43;;;25.97;;
26014;SDS011;13793;55.388;37.844;2023-02-01T03:42:34;59.50;;;25.10;;
26014;SDS011;13793;55.388;37.844;2023-02-01T03:47:42;60.37;;;26.47;;
26014;SDS011;13793;55.388;37.844;2023-02-01T03:50:14;56.53;;;25.23;;
26014;SDS011;13793;55.388;37.844;2023-02-01T03:52:58;52.77;;;24.90;;
26014;SDS011;13793;55.388;37.844;2023-02-01T03:55:26;55.67;;;24.80;;
26014;SDS011;13793;55.388;37.844;2023-02-01T03:58:00;52.73;;;24.57;;
26014;SDS011;13793;55.388;37.844;2023-02-01T04:00:33;51.93;;;25.10;;
26014;SDS011;13793;55.388;37.844;2023-02-01T04:03:05;49.43;;;24.93;;
26014;SDS011;13793;55.388;37.844;2023-02-01T04:05:35;55.73;;;24.63;;
26014;SDS011;13793;55.388;37.844;2023-02-01T04:08:07;53.27;;;25.60;;
26014;SDS011;13793;55.388;37.844;2023-02-01T04:10:38;59.17;;;26.23;;
26014;SDS011;13793;55.388;37.844;2023-02-01T04:13:09;56.43;;;25.80;;
26014;SDS011;13793;55.388;37.844;2023-02-01T04:15:39;54.53;;;25.70;;
26014;SDS011;13793;55.388;37.844;2023-02-01T04:18:10;58.63;;;26.97;;
26014;SDS011;13793;55.388;37.844;2023-02-01T04:20:41;52.37;;;24.30;;
26014;SDS011;13793;55.388;37.844;2023-02-01T04:23:13;63.47;;;27.53;;
26014;SDS011;13793;55.388;37.844;2023-02-01T04:25:44;54.70;;;25.80;;
26014;SDS011;13793;55.388;37.844;2023-02-01T04:28:15;60.70;;;25.60;;
26014;SDS011;13793;55.388;37.844;2023-02-01T04:30:45;52.90;;;25.97;;
26014;SDS011;13793;55.388;37.844;2023-02-01T04:33:16;54.43;;;25.53;;
26014;SDS011;13793;55.388;37.844;2023-02-01T04:35:47;62.47;;;27.27;;
26014;SDS011;13793;55.388;37.844;2023-02-01T04:38:17;56.63;;;25.27;;
26014;SDS011;13793;55.388;37.844;2023-02-01T04:40:48;55.63;;;25.50;;
26014;SDS011;13793;55.388;37.844;2023-02-01T04:43:19;57.47;;;26.10;;
26014;SDS011;13793;55.388;37.844;2023-02-01T04:45:49;59.53;;;26.37;;
26014;SDS011;13793;55.388;37.844;2023-02-01T04:48:20;55.03;;;25.53;;
26014;SDS011;13793;55.388;37.844;2023-02-01T04:50:51;54.43;;;26.07;;
26014;SDS011;13793;55.388;37.844;2023-02-01T04:53:22;55.00;;;24.13;;
26014;SDS011;13793;55.388;37.844;2023-02-01T04:55:53;56.87;;;25.00;;
26014;SDS011;13793;55.388;37.844;2023-02-01T04:58:23;55.37;;;24.43;;
26014;SDS011;13793;55.388;37.844;2023-02-01T05:00:54;55.67;;;26.47;;
26014;SDS011;13793;55.388;37.844;2023-02-01T05:03:25;56.97;;;25.30;;
26014;SDS011;13793;55.388;37.844;2023-02-01T05:05:56;56.93;;;26.67;;
26014;SDS011;13793;55.388;37.844;2023-02-01T05:08:27;56.40;;;24.03;;
26014;SDS011;13793;55.388;37.844;2023-02-01T05:10:58;53.57;;;24.27;;
26014;SDS011;13793;55.388;37.844;2023-02-01T05:13:30;53.77;;;25.30;;
26014;SDS011;13793;55.388;37.844;2023-02-01T05:16:19;55.07;;;24.33;;
26014;SDS011;13793;55.388;37.844;2023-02-01T05:18:50;49.57;;;24.50;;
26014;SDS011;13793;55.388;37.844;2023-02-01T05:21:21;52.57;;;24.00;;
26014;SDS011;13793;55.388;37.844;2023-02-01T05:23:51;52.47;;;24.73;;
26014;SDS011;13793;55.388;37.844;2023-02-01T05:26:40;51.70;;;23.60;;
26014;SDS011;13793;55.388;37.844;2023-02-01T05:29:10;50.07;;;23.37;;
26014;SDS011;13793;55.388;37.844;2023-02-01T05:31:42;51.67;;;23.30;;
26014;SDS011;13793;55.388;37.844;2023-02-01T05:34:15;53.03;;;24.33;;
26014;SDS011;13793;55.388;37.844;2023-02-01T05:36:45;51.77;;;23.70;;
26014;SDS011;13793;55.388;37.844;2023-02-01T05:39:16;46.17;;;22.70;;
26014;SDS011;13793;55.388;37.844;2023-02-01T05:41:47;49.77;;;23.23;;
26014;SDS011;13793;55.388;37.844;2023-02-01T05:44:18;45.03;;;23.50;;
26014;SDS011;13793;55.388;37.844;2023-02-01T05:46:48;50.93;;;23.40;;
26014;SDS011;13793;55.388;37.844;2023-02-01T05:49:20;50.40;;;24.07;;
26014;SDS011;13793;55.388;37.844;2023-02-01T05:51:51;46.43;;;22.23;;
26014;SDS011;13793;55.388;37.844;2023-02-01T05:54:21;46.20;;;22.13;;
26014;SDS011;13793;55.388;37.844;2023-02-01T05:56:52;46.40;;;22.60;;
26014;SDS011;13793;55.388;37.844;2023-02-01T05:59:23;46.63;;;22.20;;
26014;SDS011;13793;55.388;37.844;2023-02-01T06:01:53;47.83;;;22.50;;
26014;SDS011;13793;55.388;37.844;2023-02-01T06:04:24;45.27;;;21.37;;
26014;SDS011;13793;55.388;37.844;2023-02-01T06:06:55;43.97;;;20.43;;
26014;SDS011;13793;55.388;37.844;2023-02-01T06:09:26;39.37;;;20.60;;
26014;SDS011;13793;55.388;37.844;2023-02-01T06:11:57;44.93;;;20.63;;
26014;SDS011;13793;55.388;37.844;2023-02-01T06:14:27;41.83;;;20.43;;
26014;SDS011;13793;55.388;37.844;2023-02-01T06:16:58;40.77;;;19.90;;
26014;SDS011;13793;55.388;37.844;2023-02-01T06:19:28;39.57;;;19.47;;
26014;SDS011;13793;55.388;37.844;2023-02-01T06:21:59;41.67;;;20.77;;
26014;SDS011;13793;55.388;37.844;2023-02-01T06:24:29;43.93;;;21.13;;
26014;SDS011;13793;55.388;37.844;2023-02-01T06:27:00;39.43;;;19.20;;
26014;SDS011;13793;55.388;37.844;2023-02-01T06:29:31;38.30;;;18.83;;
26014;SDS011;13793;55.388;37.844;2023-02-01T06:32:02;42.90;;;20.70;;
26014;SDS011;13793;55.388;37.844;2023-02-01T06:34:32;40.23;;;19.47;;
26014;SDS011;13793;55.388;37.844;2023-02-01T06:37:03;40.47;;;19.63;;
26014;SDS011;13793;55.388;37.844;2023-02-01T06:39:34;41.93;;;20.93;;
26014;SDS011;13793;55.388;37.844;2023-02-01T06:42:05;42.97;;;20.97;;
26014;SDS011;13793;55.388;37.844;2023-02-01T06:44:36;38.60;;;19.97;;
26014;SDS011;13793;55.388;37.844;2023-02-01T06:47:07;40.73;;;21.30;;
26014;SDS011;13793;55.388;37.844;2023-02-01T06:49:38;43.63;;;21.17;;
26014;SDS011;13793;55.388;37.844;2023-02-01T06:52:08;43.17;;;20.77;;
26014;SDS011;13793;55.388;37.844;2023-02-01T06:54:39;41.17;;;20.13;;
26014;SDS011;13793;55.388;37.844;2023-02-01T06:57:10;39.60;;;20.23;;
26014;SDS011;13793;55.388;37.844;2023-02-01T06:59:40;37.47;;;18.87;;
26014;SDS011;13793;55.388;37.844;2023-02-01T07:02:11;37.90;;;19.03;;
26014;SDS011;13793;55.388;37.844;2023-02-01T07:04:42;39.07;;;20.00;;
26014;SDS011;13793;55.388;37.844;2023-02-01T07:07:12;40.33;;;20.60;;
26014;SDS011;13793;55.388;37.844;2023-02-01T07:09:44;43.50;;;21.23;;
26014;SDS011;13793;55.388;37.844;2023-02-01T07:12:15;42.60;;;21.77;;
26014;SDS011;13793;55.388;37.844;2023-02-01T07:14:45;38.63;;;20.90;;
26014;SDS011;13793;55.388;37.844;2023-02-01T07:17:16;40.97;;;21.60;;
26014;SDS011;13793;55.388;37.844;2023-02-01T07:19:47;45.53;;;21.40;;
26014;SDS011;13793;55.388;37.844;2023-02-01T07:22:17;42.87;;;21.90;;
26014;SDS011;13793;55.388;37.844;2023-02-01T07:24:48;45.27;;;22.53;;
26014;SDS011;13793;55.388;37.844;2023-02-01T07:27:19;46.20;;;23.90;;
26014;SDS011;13793;55.388;37.844;2023-02-01T07:29:51;47.17;;;23.13;;
26014;SDS011;13793;55.388;37.844;2023-02-01T07:32:23;47.70;;;23.97;;
26014;SDS011;13793;55.388;37.844;2023-02-01T07:34:54;46.17;;;23.97;;
26014;SDS011;13793;55.388;37.844;2023-02-01T07:37:25;53.30;;;24.87;;
26014;SDS011;13793;55.388;37.844;2023-02-01T07:39:56;49.73;;;24.87;;
26014;SDS011;13793;55.388;37.844;2023-02-01T07:42:27;49.57;;;24.93;;
26014;SDS011;13793;55.388;37.844;2023-02-01T07:44:58;46.90;;;24.03;;
26014;SDS011;13793;55.388;37.844;2023-02-01T07:47:30;52.70;;;25.63;;
26014;SDS011;13793;55.388;37.844;2023-02-01T07:50:01;51.27;;;25.37;;
26014;SDS011;13793;55.388;37.844;2023-02-01T07:52:32;50.07;;;24.63;;
26014;SDS011;13793;55.388;37.844;2023-02-01T07:55:02;52.43;;;25.43;;
26014;SDS011;13793;55.388;37.844;2023-02-01T07:57:33;50.30;;;25.50;;
26014;SDS011;13793;55.388;37.844;2023-02-01T08:00:04;51.60;;;26.03;;
26014;SDS011;13793;55.388;37.844;2023-02-01T08:02:53;51.80;;;25.53;;
26014;SDS011;13793;55.388;37.844;2023-02-01T08:05:24;48.87;;;25.73;;
26014;SDS011;13793;55.388;37.844;2023-02-01T08:07:54;49.97;;;25.33;;
26014;SDS011;13793;55.388;37.844;2023-02-01T08:10:25;48.30;;;25.70;;
26014;SDS011;13793;55.388;37.844;2023-02-01T08:12:59;48.47;;;24.43;;
26014;SDS011;13793;55.388;37.844;2023-02-01T08:15:30;45.53;;;24.00;;
26014;SDS011;13793;55.388;37.844;2023-02-01T08:18:01;45.30;;;23.63;;
26014;SDS011;13793;55.388;37.844;2023-02-01T08:20:31;43.10;;;23.87;;
26014;SDS011;13793;55.388;37.844;2023-02-01T08:23:07;45.90;;;23.97;;
26014;SDS011;13793;55.388;37.844;2023-02-01T08:25:37;44.70;;;23.67;;
26014;SDS011;13793;55.388;37.844;2023-02-01T08:28:08;45.63;;;24.27;;
26014;SDS011;13793;55.388;37.844;2023-02-01T08:30:39;41.87;;;22.70;;
26014;SDS011;13793;55.388;37.844;2023-02-01T08:33:10;43.17;;;22.57;;
26014;SDS011;13793;55.388;37.844;2023-02-01T08:35:41;43.30;;;22.93;;
26014;SDS011;13793;55.388;37.844;2023-02-01T08:38:12;43.23;;;23.43;;
26014;SDS011;13793;55.388;37.844;2023-02-01T08:40:43;43.10;;;23.07;;
26014;SDS011;13793;55.388;37.844;2023-02-01T08:43:15;41.33;;;22.57;;
26014;SDS011;13793;55.388;37.844;2023-02-01T08:45:45;44.43;;;23.10;;
26014;SDS011;13793;55.388;37.844;2023-02-01T08:48:16;45.67;;;23.77;;
26014;SDS011;13793;55.388;37.844;2023-02-01T08:50:47;45.40;;;23.80;;
26014;SDS011;13793;55.388;37.844;2023-02-01T08:53:17;39.17;;;22.40;;
26014;SDS011;13793;55.388;37.844;2023-02-01T08:55:48;40.97;;;22.43;;
26014;SDS011;13793;55.388;37.844;2023-02-01T08:58:19;38.73;;;21.83;;
26014;SDS011;13793;55.388;37.844;2023-02-01T09:00:50;39.77;;;23.00;;
26014;SDS011;13793;55.388;37.844;2023-02-01T09:03:21;40.93;;;22.30;;
26014;SDS011;13793;55.388;37.844;2023-02-01T09:05:51;41.33;;;22.47;;
26014;SDS011;13793;55.388;37.844;2023-02-01T09:08:24;36.80;;;21.07;;
26014;SDS011;13793;55.388;37.844;2023-02-01T09:10:57;39.90;;;21.33;;
26014;SDS011;13793;55.388;37.844;2023-02-01T09:13:29;40.37;;;21.70;;
26014;SDS011;13793;55.388;37.844;2023-02-01T09:16:00;39.03;;;21.73;;
26014;SDS011;13793;55.388;37.844;2023-02-01T09:18:32;40.23;;;22.13;;
26014;SDS011;13793;55.388;37.844;2023-02-01T09:21:12;40.40;;;22.67;;
26014;SDS011;13793;55.388;37.844;2023-02-01T09:23:37;40.23;;;22.93;;
26014;SDS011;13793;55.388;37.844;2023-02-01T09:26:08;39.00;;;20.90;;
26014;SDS011;13793;55.388;37.844;2023-02-01T09:28:40;40.93;;;21.50;;
26014;SDS011;13793;55.388;37.844;2023-02-01T09:31:10;42.37;;;22.70;;
26014;SDS011;13793;55.388;37.844;2023-02-01T09:33:41;39.00;;;22.20;;
26014;SDS011;13793;55.388;37.844;2023-02-01T09:36:12;39.73;;;21.83;;
26014;SDS011;13793;55.388;37.844;2023-02-01T09:38:42;41.00;;;22.40;;
26014;SDS011;13793;55.388;37.844;2023-02-01T09:46:55;42.93;;;22.77;;
26014;SDS011;13793;55.388;37.844;2023-02-01T09:49:28;38.97;;;22.50;;
26014;SDS011;13793;55.388;37.844;2023-02-01T09:52:05;39.10;;;22.20;;
26014;SDS011;13793;55.388;37.844;2023-02-01T09:54:41;37.90;;;21.93;;
26014;SDS011;13793;55.388;37.844;2023-02-01T09:57:19;38.98;;;22.55;;
26014;SDS011;13793;55.388;37.844;2023-02-01T09:59:49;41.90;;;23.33;;
26014;SDS011;13793;55.388;37.844;2023-02-01T10:02:22;44.27;;;24.63;;
26014;SDS011;13793;55.388;37.844;2023-02-01T10:04:54;46.17;;;23.57;;
26014;SDS011;13793;55.388;37.844;2023-02-01T10:07:41;41.47;;;21.90;;
26014;SDS011;13793;55.388;37.844;2023-02-01T10:10:21;38.37;;;22.87;;
26014;SDS011;13793;55.388;37.844;2023-02-01T10:12:57;35.13;;;20.30;;
26014;SDS011;13793;55.388;37.844;2023-02-01T10:27:00;35.40;;;20.17;;
26014;SDS011;13793;55.388;37.844;2023-02-01T10:29:39;37.00;;;20.93;;
26014;SDS011;13793;55.388;37.844;2023-02-01T10:32:17;36.77;;;20.10;;
26014;SDS011;13793;55.388;37.844;2023-02-01T10:34:44;34.60;;;20.87;;
26014;SDS011;13793;55.388;37.844;2023-02-01T10:37:24;35.30;;;20.17;;
26014;SDS011;13793;55.388;37.844;2023-02-01T10:40:09;35.60;;;19.73;;
26014;SDS011;13793;55.388;37.844;2023-02-01T10:42:49;33.77;;;17.87;;
26014;SDS011;13793;55.388;37.844;2023-02-01T10:45:22;32.97;;;18.47;;
26014;SDS011;13793;55.388;37.844;2023-02-01T10:47:54;33.83;;;18.57;;
26014;SDS011;13793;55.388;37.844;2023-02-01T10:53:29;31.77;;;18.17;;
26014;SDS011;13793;55.388;37.844;2023-02-01T10:56:08;30.00;;;17.47;;
26014;SDS011;13793;55.388;37.844;2023-02-01T10:58:43;32.97;;;18.73;;
26014;SDS011;13793;55.388;37.844;2023-02-01T11:01:16;29.93;;;17.27;;
26014;SDS011;13793;55.388;37.844;2023-02-01T11:03:54;30.43;;;18.13;;
26014;SDS011;13793;55.388;37.844;2023-02-01T11:06:33;30.10;;;17.30;;
26014;SDS011;13793;55.388;37.844;2023-02-01T11:16:58;29.67;;;16.73;;
26014;SDS011;13793;55.388;37.844;2023-02-01T11:19:30;28.30;;;16.97;;
26014;SDS011;13793;55.388;37.844;2023-02-01T11:22:01;30.50;;;17.27;;
26014;SDS011;13793;55.388;37.844;2023-02-01T11:24:33;28.37;;;16.67;;
26014;SDS011;13793;55.388;37.844;2023-02-01T11:27:12;30.27;;;17.40;;
26014;SDS011;13793;55.388;37.844;2023-02-01T11:29:46;30.73;;;16.20;;
26014;SDS011;13793;55.388;37.844;2023-02-01T11:32:20;29.87;;;16.30;;
26014;SDS011;13793;55.388;37.844;2023-02-01T11:34:59;29.93;;;17.20;;
26014;SDS011;13793;55.388;37.844;2023-02-01T11:37:32;29.67;;;16.57;;
26014;SDS011;13793;55.388;37.844;2023-02-01T11:42:57;30.17;;;16.50;;
26014;SDS011;13793;55.388;37.844;2023-02-01T11:45:28;33.17;;;17.43;;
26014;SDS011;13793;55.388;37.844;2023-02-01T11:48:00;31.60;;;17.33;;
26014;SDS011;13793;55.388;37.844;2023-02-01T11:55:52;35.07;;;18.27;;
26014;SDS011;13793;55.388;37.844;2023-02-01T12:01:43;33.50;;;18.23;;
26014;SDS011;13793;55.388;37.844;2023-02-01T12:04:36;32.23;;;16.27;;
26014;SDS011;13793;55.388;37.844;2023-02-01T12:07:19;30.63;;;16.43;;
26014;SDS011;13793;55.388;37.844;2023-02-01T12:10:11;30.47;;;16.17;;
26014;SDS011;13793;55.388;37.844;2023-02-01T12:21:02;32.23;;;16.40;;
26014;SDS011;13793;55.388;37.844;2023-02-01T12:34:57;31.07;;;16.93;;
26014;SDS011;13793;55.388;37.844;2023-02-01T12:43:09;31.27;;;18.10;;
26014;SDS011;13793;55.388;37.844;2023-02-01T12:45:40;30.80;;;16.80;;
26014;SDS011;13793;55.388;37.844;2023-02-01T12:48:33;33.30;;;17.57;;
26014;SDS011;13793;55.388;37.844;2023-02-01T12:51:12;34.83;;;17.27;;
26014;SDS011;13793;55.388;37.844;2023-02-01T12:56:17;33.98;;;17.73;;
26014;SDS011;13793;55.388;37.844;2023-02-01T12:59:04;31.73;;;17.13;;
26014;SDS011;13793;55.388;37.844;2023-02-01T13:01:45;32.77;;;17.63;;
26014;SDS011;13793;55.388;37.844;2023-02-01T13:04:19;31.60;;;16.80;;
26014;SDS011;13793;55.388;37.844;2023-02-01T13:07:07;36.30;;;18.63;;
26014;SDS011;13793;55.388;37.844;2023-02-01T13:09:40;32.60;;;17.37;;
26014;SDS011;13793;55.388;37.844;2023-02-01T13:12:36;32.20;;;17.50;;
26014;SDS011;13793;55.388;37.844;2023-02-01T13:15:02;34.63;;;17.97;;
26014;SDS011;13793;55.388;37.844;2023-02-01T13:17:36;31.30;;;16.73;;
26014;SDS011;13793;55.388;37.844;2023-02-01T13:22:51;33.20;;;17.87;;
26014;SDS011;13793;55.388;37.844;2023-02-01T13:28:16;36.20;;;19.17;;
26014;SDS011;13793;55.388;37.844;2023-02-01T13:40:26;36.20;;;18.33;;
26014;SDS011;13793;55.388;37.844;2023-02-01T13:43:19;35.27;;;18.20;;
26014;SDS011;13793;55.388;37.844;2023-02-01T13:45:36;33.53;;;18.00;;
26014;SDS011;13793;55.388;37.844;2023-02-01T13:48:17;36.90;;;18.30;;
26014;SDS011;13793;55.388;37.844;2023-02-01T13:50:49;38.10;;;19.32;;
26014;SDS011;13793;55.388;37.844;2023-02-01T13:53:28;28.77;;;14.90;;
26014;SDS011;13793;55.388;37.844;2023-02-01T13:55:57;38.90;;;19.57;;
26014;SDS011;13793;55.388;37.844;2023-02-01T13:58:38;44.47;;;22.03;;
26014;SDS011;13793;55.388;37.844;2023-02-01T14:03:56;41.07;;;20.40;;
26014;SDS011;13793;55.388;37.844;2023-02-01T14:19:27;42.77;;;22.10;;
26014;SDS011;13793;55.388;37.844;2023-02-01T14:24:54;41.53;;;20.67;;
26014;SDS011;13793;55.388;37.844;2023-02-01T14:27:30;42.07;;;21.97;;
26014;SDS011;13793;55.388;37.844;2023-02-01T14:30:11;38.58;;;20.25;;
26014;SDS011;13793;55.388;37.844;2023-02-01T14:32:38;41.80;;;21.30;;
26014;SDS011;13793;55.388;37.844;2023-02-01T14:35:21;40.10;;;21.50;;
26014;SDS011;13793;55.388;37.844;2023-02-01T14:37:59;41.23;;;21.17;;
26014;SDS011;13793;55.388;37.844;2023-02-01T14:40:31;41.10;;;20.87;;
26014;SDS011;13793;55.388;37.844;2023-02-01T14:43:03;44.60;;;22.63;;
26014;SDS011;13793;55.388;37.844;2023-02-01T14:50:49;43.77;;;21.70;;
26014;SDS011;13793;55.388;37.844;2023-02-01T14:53:20;40.90;;;21.93;;
26014;SDS011;13793;55.388;37.844;2023-02-01T15:01:18;43.70;;;22.27;;
26014;SDS011;13793;55.388;37.844;2023-02-01T15:04:00;46.70;;;23.00;;
26014;SDS011;13793;55.388;37.844;2023-02-01T15:06:45;47.23;;;24.13;;
26014;SDS011;13793;55.388;37.844;2023-02-01T15:12:14;45.27;;;22.77;;
26014;SDS011;13793;55.388;37.844;2023-02-01T15:14:47;43.63;;;22.97;;
26014;SDS011;13793;55.388;37.844;2023-02-01T15:17:22;44.20;;;22.77;;
26014;SDS011;13793;55.388;37.844;2023-02-01T15:19:59;47.70;;;22.73;;
26014;SDS011;13793;55.388;37.844;2023-02-01T15:22:31;45.87;;;23.10;;
26014;SDS011;13793;55.388;37.844;2023-02-01T15:25:02;47.87;;;24.20;;
26014;SDS011;13793;55.388;37.844;2023-02-01T15:27:33;45.57;;;22.30;;
26014;SDS011;13793;55.388;37.844;2023-02-01T15:30:07;47.03;;;23.63;;
26014;SDS011;13793;55.388;37.844;2023-02-01T15:32:40;45.47;;;22.17;;
26014;SDS011;13793;55.388;37.844;2023-02-01T15:35:47;45.07;;;23.37;;
26014;SDS011;13793;55.388;37.844;2023-02-01T15:43:42;58.47;;;26.77;;
26014;SDS011;13793;55.388;37.844;2023-02-01T15:46:10;48.80;;;23.97;;
26014;SDS011;13793;55.388;37.844;2023-02-01T15:48:39;45.53;;;23.30;;
26014;SDS011;13793;55.388;37.844;2023-02-01T15:51:15;52.33;;;25.80;;
26014;SDS011;13793;55.388;37.844;2023-02-01T15:53:52;50.90;;;25.90;;
26014;SDS011;13793;55.388;37.844;2023-02-01T15:56:33;48.00;;;23.87;;
26014;SDS011;13793;55.388;37.844;2023-02-01T15:59:00;54.93;;;25.97;;
26014;SDS011;13793;55.388;37.844;2023-02-01T16:01:36;54.30;;;26.27;;
26014;SDS011;13793;55.388;37.844;2023-02-01T16:04:17;52.87;;;25.90;;
26014;SDS011;13793;55.388;37.844;2023-02-01T16:09:23;52.97;;;26.10;;
26014;SDS011;13793;55.388;37.844;2023-02-01T16:11:56;53.73;;;27.30;;
26014;SDS011;13793;55.388;37.844;2023-02-01T16:14:28;53.00;;;27.20;;
26014;SDS011;13793;55.388;37.844;2023-02-01T16:16:58;47.83;;;26.10;;
26014;SDS011;13793;55.388;37.844;2023-02-01T16:19:29;49.30;;;26.27;;
26014;SDS011;13793;55.388;37.844;2023-02-01T16:22:00;50.30;;;26.90;;
26014;SDS011;13793;55.388;37.844;2023-02-01T16:24:30;49.00;;;25.53;;
26014;SDS011;13793;55.388;37.844;2023-02-01T16:27:01;49.17;;;24.23;;
26014;SDS011;13793;55.388;37.844;2023-02-01T16:29:34;50.33;;;26.43;;
26014;SDS011;13793;55.388;37.844;2023-02-01T16:32:04;49.60;;;24.83;;
26014;SDS011;13793;55.388;37.844;2023-02-01T16:34:35;49.83;;;25.87;;
26014;SDS011;13793;55.388;37.844;2023-02-01T16:37:06;48.97;;;25.60;;
26014;SDS011;13793;55.388;37.844;2023-02-01T16:39:39;49.83;;;26.23;;
26014;SDS011;13793;55.388;37.844;2023-02-01T16:42:13;46.53;;;24.63;;
26014;SDS011;13793;55.388;37.844;2023-02-01T16:44:45;47.10;;;24.80;;
26014;SDS011;13793;55.388;37.844;2023-02-01T16:47:21;40.30;;;22.00;;
26014;SDS011;13793;55.388;37.844;2023-02-01T16:49:49;38.17;;;20.87;;
26014;SDS011;13793;55.388;37.844;2023-02-01T16:52:25;39.10;;;21.30;;
26014;SDS011;13793;55.388;37.844;2023-02-01T16:54:53;40.73;;;22.10;;
26014;SDS011;13793;55.388;37.844;2023-02-01T16:57:24;39.70;;;21.33;;
26014;SDS011;13793;55.388;37.844;2023-02-01T16:59:56;41.53;;;22.23;;
26014;SDS011;13793;55.388;37.844;2023-02-01T17:02:29;40.93;;;22.60;;